Strona główna
METAR-TAF:

METAR-TAF

Lotnisko :

Port lotniczy Užice-Ponikwe

Užice, Serbia

Szerokość geograficzna: 43-53-56N, Długość geograficzna: 19-41-52E, wysokość: 904 m

Aktualna obserwacja pogody

Raport powstał 16 minut temu, godzina 02:30 UTC
Wiatr 3 kt od wschód, zmienny między wschodnio-północny wschód i południowo-południowy wschód
Temperatura 3°C
Wilgotność 52%
Ciśnienie 1026 hPa
Widzialność 10 km lub więcej
Brak chmur poniżej 1500 m i brak chmur cumulonimbus

METAR: LYUZ 060230Z AUTO 10003KT 060V160 CAVOK 03/M06 Q1026

czas: 04:46 (02:46 UTC)

Prognoza

Raport powstał 3 godziny i 46 minut temu, godzina 23:00 UTC
Prognoza ważna od 06 godzina 00 UTC do 06 godzina 24 UTC
Wiatr 5 kt od wschód
Widzialność 10 km lub więcej
Brak chmur poniżej 1500 m i brak chmur cumulonimbus
Stopniowe zmiany
od 06 godzina 03 UTC do 06 godzina 05 UTC
Wiatr 15 kt od wschód

TAF: LYUZ 052300Z 0600/0624 10005KT CAVOK TX10/0612Z TN01/0605Z BECMG 0603/0605 10015KT

Obserwacja i prognoza pogody dla ponad 4000 lotnisk (raport METAR i TAF).

Dostępne stacje oznaczono żółtymi i czerwonymi punktami na mapie.

Najedź kursorem aby zobaczyć nazwę stacji.

Kliknij aby zobaczyć obserwacje i prognozy pogody.

Aby zmienić mapę: kliknij na zielony przycisk z czarnym krzyżykiem, aby powiększyć; na zielony przycisk z myślnikiem, aby pomniejszyć; na zielone strzałki, aby przejść do map sąsiednich.


METAR-TAF: